createdAt,value
2023-05-05T00:01:08.986Z,18.87
2023-05-05T00:03:40.271Z,18.77
2023-05-05T00:06:13.420Z,18.87
2023-05-05T00:08:41.432Z,18.87
2023-05-05T00:11:16.766Z,17.76
2023-05-05T00:13:50.803Z,18.17
2023-05-05T00:16:18.926Z,18.25
2023-05-05T00:18:47.359Z,18.44
2023-05-05T00:21:19.382Z,18.42
2023-05-05T00:23:48.467Z,17.73
2023-05-05T00:26:19.824Z,17.42
2023-05-05T00:28:52.187Z,18.06
2023-05-05T00:31:24.099Z,17.54
2023-05-05T00:33:52.473Z,17.56
2023-05-05T00:36:21.323Z,17.17
2023-05-05T00:38:49.624Z,17.18
2023-05-05T00:41:20.655Z,17.04
2023-05-05T00:43:50.497Z,16.46
2023-05-05T00:46:26.257Z,17.33
2023-05-05T00:48:58.527Z,17.57
2023-05-05T00:51:27.249Z,17.68
2023-05-05T00:53:59.888Z,17.42
2023-05-05T00:56:28.982Z,17.61
2023-05-05T00:58:59.714Z,17.81
2023-05-05T01:01:32.224Z,17.99
2023-05-05T01:04:02.825Z,17.96
2023-05-05T01:06:43.781Z,17.66
2023-05-05T01:09:22.849Z,17.59
2023-05-05T01:12:07.700Z,18.07
2023-05-05T01:14:41.226Z,17.97
2023-05-05T01:17:16.557Z,17.42
2023-05-05T01:20:04.831Z,17.74
2023-05-05T01:22:39.870Z,17.59
2023-05-05T01:25:23.868Z,17.63
2023-05-05T01:28:02.298Z,17.61
2023-05-05T01:31:09.157Z,17.39
2023-05-05T01:33:46.113Z,17.32
2023-05-05T01:36:22.963Z,17.68
2023-05-05T01:38:55.731Z,17.66
2023-05-05T01:41:34.340Z,17.63
2023-05-05T01:44:07.057Z,17.95
2023-05-05T01:46:37.134Z,17.84
2023-05-05T01:49:11.775Z,17.84
2023-05-05T01:51:43.758Z,17.09
2023-05-05T01:54:16.631Z,16.81
2023-05-05T01:56:44.933Z,16.49
2023-05-05T01:59:17.659Z,15.79
2023-05-05T02:01:47.305Z,15.60
2023-05-05T02:04:22.903Z,16.17
2023-05-05T02:06:54.370Z,16.46
2023-05-05T02:09:25.756Z,16.68
2023-05-05T02:11:54.743Z,16.90
2023-05-05T02:14:23.666Z,16.32
2023-05-05T02:16:52.408Z,16.35
2023-05-05T02:19:30.454Z,16.66
2023-05-05T02:21:59.313Z,16.76
2023-05-05T02:24:27.878Z,16.68
2023-05-05T02:27:10.233Z,16.76
2023-05-05T02:29:45.007Z,16.71
2023-05-05T02:32:18.780Z,17.10
2023-05-05T02:35:06.606Z,17.10
2023-05-05T02:37:35.663Z,17.44
2023-05-05T02:40:06.707Z,17.32
2023-05-05T02:42:43.857Z,17.04
2023-05-05T02:45:17.451Z,17.19
2023-05-05T02:47:45.792Z,17.50
2023-05-05T02:50:17.363Z,17.17
2023-05-05T02:52:51.478Z,17.20
2023-05-05T02:55:19.850Z,17.16
2023-05-05T02:57:55.721Z,17.86
2023-05-05T03:00:27.311Z,17.86
2023-05-05T03:03:06.119Z,17.55
2023-05-05T03:05:40.896Z,17.11
2023-05-05T03:08:12.615Z,16.92
2023-05-05T03:10:45.673Z,17.44
2023-05-05T03:13:16.265Z,17.25
2023-05-05T03:15:50.672Z,17.59
2023-05-05T03:18:20.803Z,17.43
2023-05-05T03:21:09.513Z,15.69
2023-05-05T03:23:40.289Z,16.70
2023-05-05T03:26:10.506Z,17.30
2023-05-05T03:28:38.780Z,17.30
2023-05-05T03:31:07.054Z,17.08
2023-05-05T03:33:37.942Z,17.48
2023-05-05T03:36:18.602Z,17.27
2023-05-05T03:38:46.985Z,17.27
2023-05-05T03:41:17.623Z,16.82
2023-05-05T03:43:48.886Z,17.75
2023-05-05T03:46:17.697Z,17.47
2023-05-05T03:48:46.735Z,17.63
2023-05-05T03:51:21.807Z,17.61
2023-05-05T03:53:53.199Z,17.34
2023-05-05T03:56:21.606Z,17.36
2023-05-05T03:58:49.625Z,17.46
2023-05-05T04:01:22.276Z,17.33
2023-05-05T04:03:50.702Z,17.40
2023-05-05T04:06:23.502Z,17.79
2023-05-05T04:08:52.215Z,17.83
2023-05-05T04:11:20.938Z,17.49
2023-05-05T04:13:54.691Z,17.95
2023-05-05T04:16:24.475Z,18.07
2023-05-05T04:18:52.799Z,18.58
2023-05-05T04:21:22.819Z,18.37
2023-05-05T04:23:57.720Z,18.32
2023-05-05T04:26:25.819Z,18.56
2023-05-05T04:28:56.076Z,18.82
2023-05-05T04:31:26.239Z,19.15
2023-05-05T04:33:55.983Z,18.70
2023-05-05T04:36:26.372Z,17.25
2023-05-05T04:38:57.453Z,18.32
2023-05-05T04:41:32.365Z,18.39
2023-05-05T04:44:04.137Z,18.47
2023-05-05T04:46:32.481Z,18.64
2023-05-05T04:49:04.394Z,19.08
2023-05-05T04:51:36.434Z,19.22
2023-05-05T04:54:05.932Z,19.42
2023-05-05T04:56:34.318Z,19.36
2023-05-05T04:59:02.703Z,19.52
2023-05-05T05:01:36.216Z,19.27
2023-05-05T05:04:06.456Z,19.50
2023-05-05T05:06:40.409Z,19.65
2023-05-05T05:09:08.828Z,19.79
2023-05-05T05:11:37.868Z,19.82
2023-05-05T05:14:06.262Z,19.68
2023-05-05T05:16:37.347Z,19.68
2023-05-05T05:19:06.944Z,19.83
2023-05-05T05:21:37.640Z,20.13
2023-05-05T05:24:16.506Z,20.58
2023-05-05T05:26:46.255Z,20.59
2023-05-05T05:29:27.503Z,20.79
2023-05-05T05:32:00.265Z,20.51
2023-05-05T05:34:30.731Z,19.41
2023-05-05T05:37:02.379Z,19.36
2023-05-05T05:39:33.243Z,19.77
2023-05-05T05:42:06.938Z,19.85
2023-05-05T05:44:44.069Z,19.69
2023-05-05T05:47:15.140Z,20.18
2023-05-05T05:49:45.177Z,20.26
2023-05-05T05:52:16.854Z,19.85
2023-05-05T05:54:45.878Z,19.89
2023-05-05T05:57:16.110Z,20.15
2023-05-05T05:59:50.516Z,19.80
2023-05-05T06:02:21.895Z,19.07
2023-05-05T06:04:50.975Z,19.91
2023-05-05T06:07:23.870Z,20.11
2023-05-05T06:09:51.638Z,19.77
2023-05-05T06:12:20.158Z,19.48
2023-05-05T06:14:49.094Z,20.11
2023-05-05T06:17:17.600Z,19.74
2023-05-05T06:19:45.573Z,19.48
2023-05-05T06:22:16.642Z,18.53
2023-05-05T06:24:48.962Z,19.23
2023-05-05T06:27:17.342Z,19.38
2023-05-05T06:29:45.834Z,19.41
2023-05-05T06:32:14.912Z,19.75
2023-05-05T06:34:44.709Z,19.42
2023-05-05T06:37:13.250Z,20.24
2023-05-05T06:39:49.358Z,20.24
2023-05-05T06:42:19.308Z,20.34
2023-05-05T06:44:48.813Z,19.98
2023-05-05T06:47:17.448Z,19.87
2023-05-05T06:49:45.616Z,20.08
2023-05-05T06:52:13.996Z,20.04
2023-05-05T06:54:43.888Z,18.17
2023-05-05T06:57:33.136Z,19.66
2023-05-05T07:00:08.027Z,19.61
2023-05-05T07:02:36.871Z,19.71
2023-05-05T07:05:06.181Z,20.22
2023-05-05T07:07:38.575Z,19.83
2023-05-05T07:10:11.421Z,19.63
2023-05-05T07:12:44.794Z,19.62
2023-05-05T07:15:26.580Z,19.41
2023-05-05T07:17:58.574Z,19.89
2023-05-05T07:20:26.919Z,20.16
2023-05-05T07:23:01.238Z,19.95
2023-05-05T07:25:32.969Z,20.03
2023-05-05T07:28:08.204Z,19.67
2023-05-05T07:30:36.755Z,19.71
2023-05-05T07:33:10.090Z,19.68
2023-05-05T07:35:49.229Z,20.13
2023-05-05T07:38:20.062Z,20.01
2023-05-05T07:40:50.484Z,20.21
2023-05-05T07:43:30.158Z,20.75
2023-05-05T07:45:58.404Z,20.31
2023-05-05T07:48:26.833Z,20.57
2023-05-05T07:50:55.281Z,20.55
2023-05-05T07:53:25.934Z,20.71
2023-05-05T07:55:54.542Z,20.27
2023-05-05T07:58:25.052Z,20.88
2023-05-05T08:00:57.056Z,20.66
2023-05-05T08:03:28.163Z,20.35
2023-05-05T08:05:57.045Z,20.72
2023-05-05T08:08:26.234Z,20.83
2023-05-05T08:10:57.247Z,20.39
2023-05-05T08:13:28.398Z,20.60
2023-05-05T08:16:09.930Z,20.59
2023-05-05T08:18:41.914Z,20.31
2023-05-05T08:21:10.985Z,21.09
2023-05-05T08:23:42.788Z,21.35
2023-05-05T08:26:15.430Z,21.35
2023-05-05T08:28:44.815Z,20.93
2023-05-05T08:31:19.724Z,20.05
2023-05-05T08:33:48.241Z,20.72
2023-05-05T08:36:18.849Z,19.93
2023-05-05T08:38:50.464Z,19.91
2023-05-05T08:41:21.889Z,19.83
2023-05-05T08:43:54.147Z,20.06
2023-05-05T08:46:25.583Z,19.60
2023-05-05T08:48:58.628Z,19.72
2023-05-05T08:51:34.739Z,19.64
2023-05-05T08:54:11.823Z,19.64
2023-05-05T08:56:41.801Z,19.86
2023-05-05T08:59:25.505Z,20.34
2023-05-05T09:01:58.297Z,20.48
2023-05-05T09:04:29.070Z,20.79
2023-05-05T09:07:01.491Z,20.92
2023-05-05T09:09:32.121Z,20.70
2023-05-05T09:12:05.020Z,20.59
2023-05-05T09:14:34.802Z,20.55
2023-05-05T09:17:04.835Z,20.74
2023-05-05T09:19:37.302Z,20.69
2023-05-05T09:22:05.404Z,21.01
2023-05-05T09:24:34.317Z,21.16
2023-05-05T09:27:03.219Z,20.70
2023-05-05T09:29:45.224Z,21.08
2023-05-05T09:32:21.877Z,20.78
2023-05-05T09:35:02.401Z,20.65
2023-05-05T09:37:35.102Z,20.89
2023-05-05T09:40:05.418Z,20.92
2023-05-05T09:42:36.180Z,21.24
2023-05-05T09:45:09.135Z,20.55
2023-05-05T09:47:40.801Z,19.18
2023-05-05T09:50:11.707Z,21.29
2023-05-05T09:52:43.860Z,21.09
2023-05-05T09:55:27.810Z,21.58
2023-05-05T09:58:09.538Z,20.76
2023-05-05T10:00:40.148Z,20.93
2023-05-05T10:03:12.887Z,21.10
2023-05-05T10:05:52.010Z,21.41
2023-05-05T10:08:21.796Z,21.49
2023-05-05T10:10:53.955Z,21.66
2023-05-05T10:13:26.802Z,21.41
2023-05-05T10:15:59.941Z,21.82
2023-05-05T10:18:34.193Z,22.01
2023-05-05T10:21:05.329Z,21.74
2023-05-05T10:23:39.400Z,20.96
2023-05-05T10:26:19.913Z,21.02
2023-05-05T10:28:56.751Z,21.40
2023-05-05T10:31:29.689Z,20.98
2023-05-05T10:34:04.605Z,20.93
2023-05-05T10:36:35.149Z,20.65
2023-05-05T10:39:09.378Z,20.69
2023-05-05T10:41:41.122Z,21.10
2023-05-05T10:44:11.233Z,21.18
2023-05-05T10:46:39.819Z,21.42
2023-05-05T10:49:20.121Z,21.79
2023-05-05T10:51:55.856Z,22.15
2023-05-05T10:54:36.360Z,21.86
2023-05-05T10:57:09.215Z,21.71
2023-05-05T10:59:46.710Z,21.69
2023-05-05T11:02:40.603Z,22.10
2023-05-05T11:05:21.089Z,22.12
2023-05-05T11:07:52.531Z,22.89
2023-05-05T11:10:24.679Z,23.08
2023-05-05T11:13:20.319Z,23.45
2023-05-05T11:15:57.213Z,23.49
2023-05-05T11:18:36.412Z,23.33
2023-05-05T11:21:20.622Z,23.84
2023-05-05T11:23:51.295Z,23.94
2023-05-05T11:26:23.750Z,24.45
2023-05-05T11:29:02.976Z,24.34
2023-05-05T11:31:36.258Z,23.84
2023-05-05T11:34:29.525Z,24.44
2023-05-05T11:37:13.121Z,24.64
2023-05-05T11:39:54.909Z,24.68
2023-05-05T11:42:28.074Z,24.72
2023-05-05T11:44:56.566Z,25.17
2023-05-05T11:47:32.430Z,24.79
2023-05-05T11:50:16.729Z,23.92
2023-05-05T11:52:49.739Z,24.14
2023-05-05T11:55:23.741Z,24.68
2023-05-05T11:57:55.325Z,24.91
2023-05-05T12:00:36.722Z,24.23
2023-05-05T12:03:06.578Z,24.10
2023-05-05T12:05:40.093Z,24.15
2023-05-05T12:08:10.374Z,24.31
2023-05-05T12:10:40.948Z,23.88
2023-05-05T12:13:23.429Z,24.17
2023-05-05T12:15:57.821Z,23.34
2023-05-05T12:18:28.812Z,24.17
2023-05-05T12:20:57.274Z,24.20
2023-05-05T12:23:32.028Z,24.23
2023-05-05T12:25:59.882Z,23.74
2023-05-05T12:28:50.509Z,24.04
2023-05-05T12:31:18.723Z,24.32
2023-05-05T12:33:59.584Z,24.16
2023-05-05T12:36:31.176Z,24.04
2023-05-05T12:39:03.390Z,24.26
2023-05-05T12:41:35.065Z,24.79
2023-05-05T12:44:06.018Z,25.80
2023-05-05T12:46:47.360Z,25.57
2023-05-05T12:49:20.343Z,25.43
2023-05-05T12:51:58.392Z,26.38
2023-05-05T12:54:33.689Z,26.58
2023-05-05T12:57:12.779Z,25.87
2023-05-05T12:59:40.608Z,26.04
2023-05-05T13:02:11.707Z,26.21
2023-05-05T13:04:50.397Z,26.35
2023-05-05T13:07:21.757Z,26.28
2023-05-05T13:09:51.995Z,26.75
2023-05-05T13:12:23.308Z,27.49
2023-05-05T13:14:58.015Z,26.80
2023-05-05T13:17:32.804Z,26.48
2023-05-05T13:20:06.698Z,25.58
2023-05-05T13:22:44.956Z,25.44
2023-05-05T13:25:20.056Z,24.88
2023-05-05T13:27:52.972Z,25.60
2023-05-05T13:30:21.448Z,25.66
2023-05-05T13:32:49.597Z,26.00
2023-05-05T13:35:20.174Z,25.38
2023-05-05T13:37:52.521Z,24.36
2023-05-05T13:40:24.516Z,24.47
2023-05-05T13:42:55.232Z,24.10
2023-05-05T13:45:24.329Z,23.58
2023-05-05T13:47:55.033Z,24.45
2023-05-05T13:50:31.968Z,24.46
2023-05-05T13:52:59.883Z,24.52
2023-05-05T13:55:36.507Z,24.07
2023-05-05T13:58:09.679Z,23.83
2023-05-05T14:00:37.886Z,23.51
2023-05-05T14:03:08.909Z,23.51
2023-05-05T14:05:39.148Z,23.34
2023-05-05T14:08:09.724Z,23.20
2023-05-05T14:10:40.479Z,23.07
2023-05-05T14:13:09.055Z,22.79
2023-05-05T14:15:38.827Z,23.11
2023-05-05T14:18:08.709Z,23.08
2023-05-05T14:20:41.672Z,23.25
2023-05-05T14:23:11.065Z,23.16
2023-05-05T14:25:43.900Z,22.85
2023-05-05T14:28:12.766Z,23.15
2023-05-05T14:30:44.920Z,22.70
2023-05-05T14:33:14.496Z,22.73
2023-05-05T14:35:42.802Z,22.88
2023-05-05T14:38:13.889Z,22.77
2023-05-05T14:40:46.102Z,22.59
2023-05-05T14:43:17.059Z,22.51
2023-05-05T14:45:48.400Z,22.72
2023-05-05T14:48:25.454Z,22.75
2023-05-05T14:50:59.455Z,22.61
2023-05-05T14:53:30.968Z,22.37
2023-05-05T14:56:07.045Z,22.36
2023-05-05T14:58:44.488Z,22.41
2023-05-05T15:01:21.213Z,22.52
2023-05-05T15:03:52.613Z,22.06
2023-05-05T15:06:28.555Z,22.20
2023-05-05T15:08:56.900Z,21.82
2023-05-05T15:11:28.418Z,22.06
2023-05-05T15:13:57.390Z,22.09
2023-05-05T15:16:29.359Z,22.25
2023-05-05T15:18:58.457Z,22.16
2023-05-05T15:21:26.981Z,21.87
2023-05-05T15:23:57.335Z,22.01
2023-05-05T15:26:29.300Z,22.07
2023-05-05T15:28:57.133Z,21.96
2023-05-05T15:31:26.999Z,22.37
2023-05-05T15:34:01.697Z,22.44
2023-05-05T15:36:29.887Z,22.46
2023-05-05T15:38:59.172Z,22.41
2023-05-05T15:41:29.669Z,22.38
2023-05-05T15:43:58.396Z,22.13
2023-05-05T15:46:26.884Z,21.83
2023-05-05T15:48:54.699Z,21.01
2023-05-05T15:51:27.428Z,20.34
2023-05-05T15:54:04.207Z,21.65
2023-05-05T15:56:33.866Z,21.28
2023-05-05T15:59:05.396Z,20.98
2023-05-05T16:01:36.612Z,21.34
2023-05-05T16:04:08.848Z,20.63
2023-05-05T16:06:37.053Z,19.80
2023-05-05T16:09:05.714Z,20.02
2023-05-05T16:11:37.736Z,19.78
2023-05-05T16:14:05.716Z,19.51
2023-05-05T16:16:33.733Z,19.86
2023-05-05T16:19:01.872Z,19.65
2023-05-05T16:21:31.470Z,19.79
2023-05-05T16:23:59.733Z,19.20
2023-05-05T16:26:30.223Z,19.25
2023-05-05T16:29:00.925Z,18.50
2023-05-05T16:31:29.599Z,18.64
2023-05-05T16:34:14.971Z,18.64
2023-05-05T16:36:46.046Z,18.22
2023-05-05T16:39:18.843Z,18.72
2023-05-05T16:41:52.407Z,17.58
2023-05-05T16:44:25.361Z,17.43
2023-05-05T16:46:53.958Z,17.68
2023-05-05T16:49:24.165Z,17.44
2023-05-05T16:51:52.834Z,17.38
2023-05-05T16:54:21.260Z,17.18
2023-05-05T16:56:52.642Z,17.32
2023-05-05T16:59:22.756Z,17.58
2023-05-05T17:01:56.205Z,17.44
2023-05-05T17:04:25.242Z,17.25
2023-05-05T17:06:56.336Z,17.65
2023-05-05T17:09:27.316Z,17.56
2023-05-05T17:12:01.043Z,17.21
2023-05-05T17:14:30.664Z,16.95
2023-05-05T17:16:59.511Z,17.94
2023-05-05T17:19:29.533Z,17.67
2023-05-05T17:21:57.679Z,17.23
2023-05-05T17:24:40.337Z,17.23
2023-05-05T17:27:13.449Z,17.61
2023-05-05T17:29:43.265Z,17.62
2023-05-05T17:32:11.154Z,17.70
2023-05-05T17:34:41.777Z,17.85
2023-05-05T17:37:10.658Z,18.10
2023-05-05T17:39:39.662Z,18.49
2023-05-05T17:42:09.108Z,18.51
2023-05-05T17:44:36.976Z,18.77
2023-05-05T17:47:08.614Z,17.92
2023-05-05T17:49:36.553Z,17.09
2023-05-05T17:52:07.498Z,16.87
2023-05-05T17:54:39.159Z,17.42
2023-05-05T17:57:11.234Z,17.94
2023-05-05T17:59:39.449Z,17.85
2023-05-05T18:02:15.679Z,17.99
2023-05-05T18:04:43.915Z,17.94
2023-05-05T18:07:14.971Z,18.18
2023-05-05T18:09:52.279Z,18.80
2023-05-05T18:12:20.503Z,19.02
2023-05-05T18:14:50.744Z,19.19
2023-05-05T18:17:21.541Z,19.15
2023-05-05T18:19:51.037Z,19.27
2023-05-05T18:22:22.006Z,18.98
2023-05-05T18:24:59.982Z,18.91
2023-05-05T18:27:32.638Z,19.32
2023-05-05T18:30:00.977Z,18.89
2023-05-05T18:32:31.946Z,19.54
2023-05-05T18:35:00.562Z,19.59
2023-05-05T18:37:34.148Z,18.85
2023-05-05T18:40:02.332Z,18.54
2023-05-05T18:42:34.603Z,18.76
2023-05-05T18:45:08.578Z,18.56
2023-05-05T18:47:44.317Z,18.27
2023-05-05T18:50:13.927Z,17.64
2023-05-05T18:52:48.326Z,17.99
2023-05-05T18:55:18.897Z,18.21
2023-05-05T18:57:47.198Z,17.98
2023-05-05T19:00:30.312Z,18.17
2023-05-05T19:03:09.364Z,16.79
2023-05-05T19:05:42.281Z,17.91
2023-05-05T19:08:16.270Z,17.85
2023-05-05T19:10:49.646Z,17.26
2023-05-05T19:13:18.024Z,16.87
2023-05-05T19:15:49.869Z,16.86
2023-05-05T19:18:20.134Z,16.92
2023-05-05T19:20:52.969Z,16.70
2023-05-05T19:23:22.977Z,16.13
2023-05-05T19:26:16.918Z,16.14
2023-05-05T19:28:46.495Z,16.33
2023-05-05T19:31:25.197Z,16.50
2023-05-05T19:34:07.335Z,16.74
2023-05-05T19:36:35.799Z,16.44
2023-05-05T19:39:08.630Z,16.74
2023-05-05T19:41:37.069Z,16.35
2023-05-05T19:44:05.548Z,15.79
2023-05-05T19:46:33.812Z,16.27
2023-05-05T19:49:04.070Z,16.30
2023-05-05T19:51:33.180Z,16.02
2023-05-05T19:54:01.327Z,16.12
2023-05-05T19:56:29.717Z,16.57
2023-05-05T19:59:05.375Z,16.13
2023-05-05T20:01:34.560Z,16.37
2023-05-05T20:04:04.835Z,16.41
2023-05-05T20:06:33.789Z,16.26
2023-05-05T20:09:02.342Z,16.35
2023-05-05T20:11:34.658Z,16.35
2023-05-05T20:14:04.676Z,17.46
2023-05-05T20:16:33.936Z,17.13
2023-05-05T20:19:03.922Z,17.46
2023-05-05T20:21:32.852Z,17.59
2023-05-05T20:24:02.639Z,17.53
2023-05-05T20:26:37.060Z,17.57
2023-05-05T20:29:06.452Z,17.74
2023-05-05T20:31:35.006Z,17.41
2023-05-05T20:34:06.933Z,17.46
2023-05-05T20:36:38.762Z,16.08
2023-05-05T20:39:07.746Z,16.86
2023-05-05T20:41:36.379Z,17.06
2023-05-05T20:44:07.785Z,17.42
2023-05-05T20:46:36.416Z,17.64
2023-05-05T20:49:09.448Z,17.46
2023-05-05T20:51:39.854Z,17.37
2023-05-05T20:54:08.064Z,17.35
2023-05-05T20:56:36.262Z,17.49
2023-05-05T20:59:04.945Z,17.20
2023-05-05T21:01:35.565Z,17.49
2023-05-05T21:04:07.659Z,17.43
2023-05-05T21:06:35.843Z,17.66
2023-05-05T21:09:04.175Z,17.48
2023-05-05T21:11:34.758Z,18.10
2023-05-05T21:14:04.271Z,17.83
2023-05-05T21:16:33.612Z,17.71
2023-05-05T21:19:01.560Z,17.11
2023-05-05T21:21:32.603Z,16.69
2023-05-05T21:24:01.012Z,16.70
2023-05-05T21:26:33.074Z,17.15
2023-05-05T21:29:01.402Z,17.28
2023-05-05T21:31:34.454Z,17.82
2023-05-05T21:34:06.050Z,17.44
2023-05-05T21:36:36.318Z,18.05
2023-05-05T21:39:21.458Z,17.14
2023-05-05T21:41:52.511Z,17.38
2023-05-05T21:44:25.763Z,17.73
2023-05-05T21:46:57.161Z,17.56
2023-05-05T21:49:28.975Z,17.42
2023-05-05T21:52:01.747Z,17.22
2023-05-05T21:54:36.341Z,17.45
2023-05-05T21:57:04.694Z,17.38
2023-05-05T21:59:33.007Z,17.07
2023-05-05T22:02:04.777Z,17.27
2023-05-05T22:04:32.871Z,17.29
2023-05-05T22:07:03.496Z,17.24
2023-05-05T22:09:31.234Z,17.32
2023-05-05T22:12:02.610Z,17.00
2023-05-05T22:14:30.405Z,17.05
2023-05-05T22:17:04.180Z,17.07
2023-05-05T22:19:37.710Z,17.62
2023-05-05T22:22:10.430Z,17.05
2023-05-05T22:24:42.520Z,17.27
2023-05-05T22:27:12.160Z,17.35
2023-05-05T22:29:40.365Z,17.79
2023-05-05T22:32:12.644Z,17.39
2023-05-05T22:34:40.695Z,17.71
2023-05-05T22:37:10.365Z,17.72
2023-05-05T22:39:39.362Z,17.81
2023-05-05T22:42:10.008Z,17.42
2023-05-05T22:44:39.987Z,15.37
2023-05-05T22:47:11.399Z,17.12
2023-05-05T22:49:43.804Z,16.76
2023-05-05T22:52:14.082Z,16.97
2023-05-05T22:54:43.568Z,17.25
2023-05-05T22:57:15.825Z,17.24
2023-05-05T22:59:45.814Z,17.23
2023-05-05T23:02:14.711Z,17.51
2023-05-05T23:04:44.904Z,17.02
2023-05-05T23:07:23.952Z,17.06
2023-05-05T23:09:54.399Z,17.63
2023-05-05T23:12:23.020Z,17.75
2023-05-05T23:14:52.518Z,17.83
2023-05-05T23:17:27.595Z,17.72
2023-05-05T23:19:58.416Z,17.61
2023-05-05T23:22:32.508Z,17.06
2023-05-05T23:25:05.219Z,17.23
2023-05-05T23:27:33.934Z,17.69
2023-05-05T23:30:07.131Z,17.47
2023-05-05T23:32:35.326Z,17.54
2023-05-05T23:35:03.166Z,17.18
2023-05-05T23:37:33.301Z,17.36
2023-05-05T23:40:02.858Z,17.54
2023-05-05T23:42:32.697Z,17.23
2023-05-05T23:45:00.881Z,17.23
2023-05-05T23:47:29.417Z,17.32
2023-05-05T23:49:57.491Z,17.15
2023-05-05T23:52:25.907Z,17.05
2023-05-05T23:54:57.580Z,17.17
2023-05-05T23:57:29.476Z,16.86
